createdAt,value
2022-08-25T00:00:23.611Z,1010.68
2022-08-25T00:01:23.726Z,1010.66
2022-08-25T00:02:23.861Z,1010.70
2022-08-25T00:03:23.918Z,1010.73
2022-08-25T00:04:24.907Z,1010.71
2022-08-25T00:05:24.232Z,1010.70
2022-08-25T00:06:24.360Z,1010.70
2022-08-25T00:07:24.453Z,1010.72
2022-08-25T00:08:24.607Z,1010.67
2022-08-25T00:09:24.783Z,1010.70
2022-08-25T00:10:24.940Z,1010.67
2022-08-25T00:11:25.081Z,1010.71
2022-08-25T00:12:25.207Z,1010.68
2022-08-25T00:13:25.687Z,1010.74
2022-08-25T00:14:25.501Z,1010.69
2022-08-25T00:15:25.661Z,1010.69
2022-08-25T00:16:25.808Z,1010.65
2022-08-25T00:17:25.928Z,1010.68
2022-08-25T00:18:26.069Z,1010.67
2022-08-25T00:19:26.200Z,1010.70
2022-08-25T00:20:26.360Z,1010.76
2022-08-25T00:21:26.499Z,1010.67
2022-08-25T00:22:26.636Z,1010.72
2022-08-25T00:23:26.761Z,1010.73
2022-08-25T00:24:26.940Z,1010.76
2022-08-25T00:25:27.059Z,1010.73
2022-08-25T00:26:27.242Z,1010.70
2022-08-25T00:27:27.369Z,1010.76
2022-08-25T00:28:27.500Z,1010.74
2022-08-25T00:29:27.640Z,1010.75
2022-08-25T00:30:27.781Z,1010.70
2022-08-25T00:31:37.716Z,1010.74
2022-08-25T00:32:29.109Z,1010.77
2022-08-25T00:33:28.285Z,1010.72
2022-08-25T00:34:28.430Z,1010.82
2022-08-25T00:35:28.510Z,1010.80
2022-08-25T00:36:28.646Z,1010.80
2022-08-25T00:37:28.799Z,1010.77
2022-08-25T00:38:28.942Z,1010.76
2022-08-25T00:39:29.070Z,1010.72
2022-08-25T00:40:29.274Z,1010.79
2022-08-25T00:41:29.333Z,1010.74
2022-08-25T00:42:29.497Z,1010.76
2022-08-25T00:43:29.618Z,1010.78
2022-08-25T00:44:29.772Z,1010.77
2022-08-25T00:45:29.899Z,1010.75
2022-08-25T00:46:30.107Z,1010.71
2022-08-25T00:47:30.199Z,1010.79
2022-08-25T00:48:30.339Z,1010.79
2022-08-25T00:49:30.459Z,1010.74
2022-08-25T00:50:30.598Z,1010.76
2022-08-25T00:51:30.750Z,1010.77
2022-08-25T00:52:30.913Z,1010.76
2022-08-25T00:53:31.039Z,1010.76
2022-08-25T00:54:31.173Z,1010.72
2022-08-25T00:55:31.298Z,1010.70
2022-08-25T00:56:31.561Z,1010.78
2022-08-25T00:57:34.686Z,1010.68
2022-08-25T00:58:31.730Z,1010.72
2022-08-25T00:59:31.858Z,1010.75
2022-08-25T01:00:31.999Z,1010.77
2022-08-25T01:01:32.205Z,1010.74
2022-08-25T01:02:32.367Z,1010.76
2022-08-25T01:03:33.137Z,1010.72
2022-08-25T01:04:32.620Z,1010.69
2022-08-25T01:05:32.721Z,1010.76
2022-08-25T01:06:32.860Z,1010.69
2022-08-25T01:07:33.019Z,1010.72
2022-08-25T01:08:33.158Z,1010.69
2022-08-25T01:09:33.322Z,1010.69
2022-08-25T01:10:33.451Z,1010.67
2022-08-25T01:11:33.580Z,1010.67
2022-08-25T01:12:33.728Z,1010.65
2022-08-25T01:13:33.829Z,1010.63
2022-08-25T01:14:33.959Z,1010.67
2022-08-25T01:15:34.166Z,1010.69
2022-08-25T01:16:34.261Z,1010.68
2022-08-25T01:17:34.422Z,1010.63
2022-08-25T01:18:34.568Z,1010.63
2022-08-25T01:19:34.721Z,1010.71
2022-08-25T01:20:34.863Z,1010.61
2022-08-25T01:21:34.988Z,1010.68
2022-08-25T01:22:35.128Z,1010.68
2022-08-25T01:23:35.218Z,1010.71
2022-08-25T01:24:35.363Z,1010.74
2022-08-25T01:25:35.513Z,1010.70
2022-08-25T01:26:35.640Z,1010.73
2022-08-25T01:27:35.792Z,1010.76
2022-08-25T01:28:35.910Z,1010.81
2022-08-25T01:29:36.054Z,1010.82
2022-08-25T01:30:36.211Z,1010.76
2022-08-25T01:31:36.308Z,1010.78
2022-08-25T01:32:36.622Z,1010.79
2022-08-25T01:33:36.590Z,1010.78
2022-08-25T01:34:36.737Z,1010.83
2022-08-25T01:35:36.877Z,1010.81
2022-08-25T01:36:37.010Z,1010.79
2022-08-25T01:37:37.168Z,1010.77
2022-08-25T01:38:37.281Z,1010.84
2022-08-25T01:39:37.442Z,1010.79
2022-08-25T01:40:37.590Z,1010.76
2022-08-25T01:41:37.689Z,1010.84
2022-08-25T01:42:37.823Z,1010.81
2022-08-25T01:43:37.943Z,1010.86
2022-08-25T01:44:38.102Z,1010.78
2022-08-25T01:45:38.238Z,1010.80
2022-08-25T01:46:38.411Z,1010.78
2022-08-25T01:47:38.568Z,1010.78
2022-08-25T01:48:38.637Z,1010.77
2022-08-25T01:49:38.823Z,1010.76
2022-08-25T01:50:38.966Z,1010.76
2022-08-25T01:51:39.052Z,1010.80
2022-08-25T01:52:39.174Z,1010.74
2022-08-25T01:53:39.246Z,1010.78
2022-08-25T01:54:39.411Z,1010.78
2022-08-25T01:55:39.544Z,1010.80
2022-08-25T01:56:39.674Z,1010.73
2022-08-25T01:57:39.750Z,1010.75
2022-08-25T01:58:39.904Z,1010.76
2022-08-25T01:59:40.004Z,1010.75
2022-08-25T02:00:40.142Z,1010.71
2022-08-25T02:01:40.310Z,1010.80
2022-08-25T02:02:42.720Z,1010.71
2022-08-25T02:03:42.062Z,1010.78
2022-08-25T02:04:40.774Z,1010.78
2022-08-25T02:05:40.727Z,1010.84
2022-08-25T02:06:40.873Z,1010.85
2022-08-25T02:07:41.085Z,1010.77
2022-08-25T02:08:41.151Z,1010.76
2022-08-25T02:09:41.259Z,1010.81
2022-08-25T02:10:41.400Z,1010.81
2022-08-25T02:11:41.521Z,1010.73
2022-08-25T02:12:41.667Z,1010.78
2022-08-25T02:13:41.792Z,1010.76
2022-08-25T02:14:41.922Z,1010.76
2022-08-25T02:15:42.040Z,1010.77
2022-08-25T02:16:42.284Z,1010.75
2022-08-25T02:17:42.303Z,1010.75
2022-08-25T02:18:42.432Z,1010.76
2022-08-25T02:19:42.562Z,1010.73
2022-08-25T02:20:42.702Z,1010.74
2022-08-25T02:21:42.826Z,1010.72
2022-08-25T02:22:43.435Z,1010.73
2022-08-25T02:23:44.068Z,1010.74
2022-08-25T02:24:43.198Z,1010.71
2022-08-25T02:25:43.343Z,1010.75
2022-08-25T02:26:43.529Z,1010.72
2022-08-25T02:27:43.601Z,1010.72
2022-08-25T02:28:43.743Z,1010.75
2022-08-25T02:29:43.835Z,1010.76
2022-08-25T02:30:44.083Z,1010.75
2022-08-25T02:31:44.141Z,1010.74
2022-08-25T02:32:44.243Z,1010.77
2022-08-25T02:33:44.384Z,1010.77
2022-08-25T02:34:44.504Z,1010.73
2022-08-25T02:35:44.670Z,1010.76
2022-08-25T02:36:44.856Z,1010.76
2022-08-25T02:37:44.919Z,1010.74
2022-08-25T02:38:45.043Z,1010.73
2022-08-25T02:39:45.203Z,1010.73
2022-08-25T02:40:45.323Z,1010.69
2022-08-25T02:41:47.426Z,1010.74
2022-08-25T02:42:45.671Z,1010.76
2022-08-25T02:43:45.754Z,1010.71
2022-08-25T02:44:45.910Z,1010.73
2022-08-25T02:45:46.095Z,1010.79
2022-08-25T02:46:46.193Z,1010.74
2022-08-25T02:47:46.288Z,1010.77
2022-08-25T02:48:46.419Z,1010.72
2022-08-25T02:49:46.551Z,1010.72
2022-08-25T02:50:46.689Z,1010.75
2022-08-25T02:51:46.819Z,1010.75
2022-08-25T02:52:46.931Z,1010.81
2022-08-25T02:53:47.051Z,1010.71
2022-08-25T02:54:47.206Z,1010.71
2022-08-25T02:55:47.311Z,1010.69
2022-08-25T02:56:47.401Z,1010.74
2022-08-25T02:57:47.521Z,1010.71
2022-08-25T02:58:47.652Z,1010.70
2022-08-25T02:59:47.797Z,1010.71
2022-08-25T03:00:48.004Z,1010.72
2022-08-25T03:01:48.110Z,1010.73
2022-08-25T03:02:48.243Z,1010.68
2022-08-25T03:03:48.401Z,1010.74
2022-08-25T03:04:48.583Z,1010.73
2022-08-25T03:05:48.609Z,1010.67
2022-08-25T03:06:48.732Z,1010.66
2022-08-25T03:07:48.864Z,1010.73
2022-08-25T03:08:49.001Z,1010.64
2022-08-25T03:09:49.171Z,1010.66
2022-08-25T03:10:49.360Z,1010.64
2022-08-25T03:11:49.444Z,1010.66
2022-08-25T03:12:49.774Z,1010.67
2022-08-25T03:13:49.684Z,1010.69
2022-08-25T03:14:49.841Z,1010.68
2022-08-25T03:15:50.005Z,1010.71
2022-08-25T03:16:50.231Z,1010.72
2022-08-25T03:17:50.645Z,1010.70
2022-08-25T03:18:50.383Z,1010.75
2022-08-25T03:19:50.564Z,1010.70
2022-08-25T03:20:50.676Z,1010.72
2022-08-25T03:21:50.813Z,1010.73
2022-08-25T03:22:50.964Z,1010.71
2022-08-25T03:23:51.103Z,1010.71
2022-08-25T03:24:51.253Z,1010.70
2022-08-25T03:25:51.426Z,1010.69
2022-08-25T03:26:51.530Z,1010.67
2022-08-25T03:27:51.711Z,1010.65
2022-08-25T03:28:51.875Z,1010.63
2022-08-25T03:29:52.024Z,1010.57
2022-08-25T03:30:55.818Z,1010.58
2022-08-25T03:31:52.320Z,1010.56
2022-08-25T03:32:52.391Z,1010.53
2022-08-25T03:33:52.536Z,1010.49
2022-08-25T03:34:52.691Z,1010.54
2022-08-25T03:35:52.842Z,1010.55
2022-08-25T03:36:52.944Z,1010.48
2022-08-25T03:37:53.085Z,1010.50
2022-08-25T03:38:53.251Z,1010.47
2022-08-25T03:39:53.407Z,1010.48
2022-08-25T03:40:53.514Z,1010.36
2022-08-25T03:41:53.645Z,1010.37
2022-08-25T03:42:53.771Z,1010.46
2022-08-25T03:43:53.931Z,1010.35
2022-08-25T03:44:54.073Z,1010.40
2022-08-25T03:45:54.253Z,1010.36
2022-08-25T03:46:54.332Z,1010.39
2022-08-25T03:47:54.472Z,1010.33
2022-08-25T03:48:54.632Z,1010.44
2022-08-25T03:49:54.713Z,1010.38
2022-08-25T03:50:54.904Z,1010.40
2022-08-25T03:51:54.991Z,1010.44
2022-08-25T03:52:55.153Z,1010.35
2022-08-25T03:53:55.293Z,1010.35
2022-08-25T03:54:55.415Z,1010.35
2022-08-25T03:55:55.576Z,1010.33
2022-08-25T03:56:55.722Z,1010.35
2022-08-25T03:57:55.853Z,1010.36
2022-08-25T03:58:55.985Z,1010.32
2022-08-25T03:59:56.144Z,1010.32
2022-08-25T04:00:56.295Z,1010.30
2022-08-25T04:01:56.454Z,1010.32
2022-08-25T04:02:56.584Z,1010.31
2022-08-25T04:03:56.717Z,1010.31
2022-08-25T04:04:56.894Z,1010.32
2022-08-25T04:05:57.007Z,1010.34
2022-08-25T04:06:57.084Z,1010.32
2022-08-25T04:07:57.216Z,1010.35
2022-08-25T04:08:57.340Z,1010.36
2022-08-25T04:09:57.593Z,1010.39
2022-08-25T04:10:57.592Z,1010.38
2022-08-25T04:11:57.693Z,1010.35
2022-08-25T04:12:57.831Z,1010.40
2022-08-25T04:13:57.972Z,1010.39
2022-08-25T04:14:58.117Z,1010.35
2022-08-25T04:15:58.286Z,1010.39
2022-08-25T04:16:58.479Z,1010.42
2022-08-25T04:17:58.564Z,1010.32
2022-08-25T04:18:58.724Z,1010.35
2022-08-25T04:19:58.881Z,1010.32
2022-08-25T04:20:59.034Z,1010.33
2022-08-25T04:21:59.205Z,1010.31
2022-08-25T04:22:59.264Z,1010.31
2022-08-25T04:23:59.404Z,1010.33
2022-08-25T04:24:59.535Z,1010.32
2022-08-25T04:25:59.634Z,1010.35
2022-08-25T04:26:59.749Z,1010.38
2022-08-25T04:27:59.847Z,1010.36
2022-08-25T04:29:00.004Z,1010.34
2022-08-25T04:30:00.143Z,1010.32
2022-08-25T04:31:00.261Z,1010.25
2022-08-25T04:32:00.430Z,1010.29
2022-08-25T04:33:00.474Z,1010.27
2022-08-25T04:34:00.615Z,1010.20
2022-08-25T04:35:00.765Z,1010.20
2022-08-25T04:36:00.875Z,1010.23
2022-08-25T04:37:00.988Z,1010.12
2022-08-25T04:38:01.122Z,1010.17
2022-08-25T04:39:01.270Z,1010.11
2022-08-25T04:40:01.507Z,1010.12
2022-08-25T04:41:01.524Z,1010.09
2022-08-25T04:42:01.699Z,1010.16
2022-08-25T04:43:01.764Z,1010.17
2022-08-25T04:44:01.902Z,1010.16
2022-08-25T04:45:02.044Z,1010.14
2022-08-25T04:46:02.949Z,1010.13
2022-08-25T04:47:02.294Z,1010.13
2022-08-25T04:48:02.462Z,1010.15
2022-08-25T04:49:02.568Z,1010.16
2022-08-25T04:50:02.754Z,1010.13
2022-08-25T04:51:02.904Z,1010.08
2022-08-25T04:52:03.029Z,1010.08
2022-08-25T04:53:03.163Z,1010.06
2022-08-25T04:54:03.245Z,1010.04
2022-08-25T04:55:03.382Z,1010.10
2022-08-25T04:56:04.070Z,1010.06
2022-08-25T04:57:03.641Z,1010.09
2022-08-25T04:58:03.805Z,1010.12
2022-08-25T04:59:03.847Z,1010.11
2022-08-25T05:00:03.959Z,1010.12
2022-08-25T05:01:04.882Z,1010.07
2022-08-25T05:02:04.267Z,1010.04
2022-08-25T05:03:05.083Z,1010.08
2022-08-25T05:04:04.519Z,1010.11
2022-08-25T05:05:04.603Z,1010.15
2022-08-25T05:06:04.774Z,1010.10
2022-08-25T05:07:04.864Z,1010.15
2022-08-25T05:08:05.233Z,1010.14
2022-08-25T05:09:05.122Z,1010.16
2022-08-25T05:10:05.296Z,1010.21
2022-08-25T05:11:05.396Z,1010.26
2022-08-25T05:12:05.552Z,1010.27
2022-08-25T05:13:05.623Z,1010.25
2022-08-25T05:14:05.754Z,1010.25
2022-08-25T05:15:05.857Z,1010.23
2022-08-25T05:16:06.062Z,1010.22
2022-08-25T05:17:06.203Z,1010.24
2022-08-25T05:18:06.284Z,1010.21
2022-08-25T05:19:06.377Z,1010.22
2022-08-25T05:20:06.553Z,1010.24
2022-08-25T05:21:06.716Z,1010.19
2022-08-25T05:22:06.831Z,1010.24
2022-08-25T05:23:06.925Z,1010.23
2022-08-25T05:24:07.385Z,1010.22
2022-08-25T05:25:07.144Z,1010.29
2022-08-25T05:26:07.296Z,1010.22
2022-08-25T05:27:07.414Z,1010.24
2022-08-25T05:28:07.527Z,1010.21
2022-08-25T05:29:07.640Z,1010.35
2022-08-25T05:30:07.747Z,1010.30
2022-08-25T05:31:07.926Z,1010.29
2022-08-25T05:32:08.072Z,1010.32
2022-08-25T05:33:08.126Z,1010.29
2022-08-25T05:34:08.276Z,1010.26
2022-08-25T05:35:08.419Z,1010.28
2022-08-25T05:36:08.574Z,1010.27
2022-08-25T05:37:12.041Z,1010.28
2022-08-25T05:38:08.814Z,1010.25
2022-08-25T05:39:09.967Z,1010.29
2022-08-25T05:40:09.213Z,1010.31
2022-08-25T05:41:09.183Z,1010.30
2022-08-25T05:42:09.310Z,1010.22
2022-08-25T05:43:09.455Z,1010.18
2022-08-25T05:44:09.618Z,1010.21
2022-08-25T05:45:09.774Z,1010.22
2022-08-25T05:46:10.924Z,1010.21
2022-08-25T05:47:10.016Z,1010.21
2022-08-25T05:48:10.168Z,1010.24
2022-08-25T05:49:10.265Z,1010.18
2022-08-25T05:50:10.415Z,1010.16
2022-08-25T05:51:10.810Z,1010.19
2022-08-25T05:52:11.870Z,1010.17
2022-08-25T05:53:10.794Z,1010.16
2022-08-25T05:54:10.955Z,1010.16
2022-08-25T05:55:11.065Z,1010.25
2022-08-25T05:56:11.212Z,1010.22
2022-08-25T05:57:11.284Z,1010.25
2022-08-25T05:58:11.436Z,1010.23
2022-08-25T05:59:11.544Z,1010.25
2022-08-25T06:00:11.693Z,1010.25
2022-08-25T06:01:11.815Z,1010.27
2022-08-25T06:02:11.926Z,1010.23
2022-08-25T06:03:12.075Z,1010.23
2022-08-25T06:04:12.167Z,1010.26
2022-08-25T06:05:12.285Z,1010.15
2022-08-25T06:06:12.383Z,1010.22
2022-08-25T06:07:12.637Z,1010.19
2022-08-25T06:08:12.584Z,1010.20
2022-08-25T06:09:12.729Z,1010.20
2022-08-25T06:10:12.886Z,1010.15
2022-08-25T06:11:12.983Z,1010.21
2022-08-25T06:12:13.140Z,1010.22
2022-08-25T06:13:13.251Z,1010.08
2022-08-25T06:14:13.362Z,1010.05
2022-08-25T06:15:13.506Z,1010.05
2022-08-25T06:16:13.752Z,1010.10
2022-08-25T06:17:13.775Z,1010.07
2022-08-25T06:18:13.915Z,1010.07
2022-08-25T06:19:14.065Z,1010.11
2022-08-25T06:20:14.181Z,1010.06
2022-08-25T06:21:14.296Z,1010.02
2022-08-25T06:22:14.455Z,1010.07
2022-08-25T06:23:14.538Z,1010.08
2022-08-25T06:24:15.719Z,1010.09
2022-08-25T06:25:14.809Z,1010.07
2022-08-25T06:26:20.733Z,1010.04
2022-08-25T06:27:16.059Z,1010.12
2022-08-25T06:28:15.154Z,1010.08
2022-08-25T06:29:15.246Z,1010.07
2022-08-25T06:30:16.189Z,1010.09
2022-08-25T06:31:15.532Z,1010.13
2022-08-25T06:32:15.651Z,1010.10
2022-08-25T06:33:15.751Z,1010.09
2022-08-25T06:34:15.888Z,1010.09
2022-08-25T06:35:16.061Z,1010.08
2022-08-25T06:36:16.144Z,1010.11
2022-08-25T06:37:16.268Z,1010.11
2022-08-25T06:38:16.408Z,1010.11
2022-08-25T06:39:16.559Z,1010.13
2022-08-25T06:40:16.804Z,1010.14
2022-08-25T06:41:16.800Z,1010.17
2022-08-25T06:42:16.956Z,1010.16
2022-08-25T06:43:17.039Z,1010.12
2022-08-25T06:44:17.186Z,1010.18
2022-08-25T06:45:17.299Z,1010.16
2022-08-25T06:46:17.472Z,1010.21
2022-08-25T06:47:17.574Z,1010.23
2022-08-25T06:48:17.660Z,1010.20
2022-08-25T06:49:17.797Z,1010.23
2022-08-25T06:50:17.957Z,1010.21
2022-08-25T06:51:18.053Z,1010.23
2022-08-25T06:52:18.168Z,1010.17
2022-08-25T06:53:18.253Z,1010.09
2022-08-25T06:54:18.401Z,1010.15
2022-08-25T06:55:18.520Z,1010.18
2022-08-25T06:56:18.679Z,1010.16
2022-08-25T06:57:18.810Z,1010.16
2022-08-25T06:58:18.957Z,1010.19
2022-08-25T06:59:19.059Z,1010.18
2022-08-25T07:00:19.228Z,1010.21
2022-08-25T07:01:20.028Z,1010.26
2022-08-25T07:02:22.168Z,1010.30
2022-08-25T07:03:19.571Z,1010.27
2022-08-25T07:04:19.707Z,1010.25
2022-08-25T07:05:27.316Z,1010.29
2022-08-25T07:06:20.988Z,1010.23
2022-08-25T07:07:20.115Z,1010.21
2022-08-25T07:08:20.255Z,1010.15
2022-08-25T07:09:20.389Z,1010.17
2022-08-25T07:10:20.557Z,1010.12
2022-08-25T07:11:20.627Z,1010.12
2022-08-25T07:12:20.788Z,1010.13
2022-08-25T07:13:20.892Z,1010.12
2022-08-25T07:14:21.029Z,1010.11
2022-08-25T07:15:21.282Z,1010.13
2022-08-25T07:16:21.364Z,1010.19
2022-08-25T07:17:21.425Z,1010.23
2022-08-25T07:18:21.590Z,1010.24
2022-08-25T07:19:21.665Z,1010.23
2022-08-25T07:21:24.993Z,1010.27
2022-08-25T07:22:23.090Z,1010.29
2022-08-25T07:23:22.169Z,1010.26
2022-08-25T07:24:22.301Z,1010.29
2022-08-25T07:25:22.452Z,1010.27
2022-08-25T07:26:38.948Z,1010.29
2022-08-25T07:27:23.710Z,1010.28
2022-08-25T07:28:22.849Z,1010.30
2022-08-25T07:29:32.214Z,1010.30
2022-08-25T07:30:24.150Z,1010.28
2022-08-25T07:31:23.252Z,1010.29
2022-08-25T07:32:24.338Z,1010.24
2022-08-25T07:33:23.479Z,1010.28
2022-08-25T07:34:23.609Z,1010.28
2022-08-25T07:35:24.145Z,1010.25
2022-08-25T07:36:23.879Z,1010.35
2022-08-25T07:37:47.729Z,1010.29
2022-08-25T07:38:25.110Z,1010.31
2022-08-25T07:39:24.279Z,1010.28
2022-08-25T07:40:24.490Z,1010.27
2022-08-25T07:41:24.590Z,1010.26
2022-08-25T07:42:24.643Z,1010.27
2022-08-25T07:43:24.800Z,1010.24
2022-08-25T07:44:28.007Z,1010.25
2022-08-25T07:45:32.104Z,1010.25
2022-08-25T07:46:25.222Z,1010.21
2022-08-25T07:47:25.223Z,1010.21
2022-08-25T07:48:25.323Z,1010.19
2022-08-25T07:49:25.497Z,1010.21
2022-08-25T07:50:25.585Z,1010.22
2022-08-25T07:52:25.815Z,1010.22
2022-08-25T07:53:25.967Z,1010.19
2022-08-25T07:54:34.076Z,1010.17
2022-08-25T07:55:27.263Z,1010.16
2022-08-25T07:56:26.335Z,1010.14
2022-08-25T07:57:26.582Z,1010.22
2022-08-25T07:58:26.617Z,1010.16
2022-08-25T07:59:26.756Z,1010.16
2022-08-25T08:00:26.855Z,1010.19
2022-08-25T08:01:27.084Z,1010.18
2022-08-25T08:02:27.160Z,1010.16
2022-08-25T08:03:45.329Z,1010.17
2022-08-25T08:04:28.397Z,1010.19
2022-08-25T08:05:27.521Z,1010.24
2022-08-25T08:06:27.629Z,1010.18
2022-08-25T08:07:43.199Z,1010.17
2022-08-25T08:08:28.899Z,1010.16
2022-08-25T08:09:28.043Z,1010.19
2022-08-25T08:11:03.273Z,1010.12
2022-08-25T08:11:29.279Z,1010.13
2022-08-25T08:12:28.454Z,1010.10
2022-08-25T08:13:28.624Z,1010.09
2022-08-25T08:14:28.668Z,1010.09
2022-08-25T08:15:29.898Z,1010.11
2022-08-25T08:16:28.985Z,1010.03
2022-08-25T08:17:29.037Z,1009.98
2022-08-25T08:18:29.168Z,1009.94
2022-08-25T08:19:29.289Z,1009.97
2022-08-25T08:20:29.438Z,1009.96
2022-08-25T08:21:30.579Z,1009.96
2022-08-25T08:22:29.654Z,1010.02
2022-08-25T08:23:29.795Z,1009.98
2022-08-25T08:24:44.179Z,1009.96
2022-08-25T08:25:31.066Z,1009.96
2022-08-25T08:26:55.235Z,1009.98
2022-08-25T08:27:31.327Z,1009.93
2022-08-25T08:28:30.464Z,1009.89
2022-08-25T08:29:31.571Z,1009.94
2022-08-25T08:30:30.733Z,1009.93
2022-08-25T08:31:30.890Z,1009.92
2022-08-25T08:32:40.677Z,1009.93
2022-08-25T08:33:32.106Z,1009.92
2022-08-25T08:34:32.226Z,1009.89
2022-08-25T08:35:31.403Z,1009.84
2022-08-25T08:36:31.458Z,1009.81
2022-08-25T08:37:31.608Z,1009.86
2022-08-25T08:38:31.764Z,1009.89
2022-08-25T08:39:31.871Z,1009.84
2022-08-25T08:40:32.030Z,1009.83
2022-08-25T08:41:40.165Z,1009.79
2022-08-25T08:42:33.220Z,1009.76
2022-08-25T08:43:33.414Z,1009.79
2022-08-25T08:44:32.468Z,1009.79
2022-08-25T08:45:35.603Z,1009.71
2022-08-25T08:46:33.760Z,1009.77
2022-08-25T08:47:32.828Z,1009.80
2022-08-25T08:48:32.920Z,1009.78
2022-08-25T08:49:33.066Z,1009.73
2022-08-25T08:50:33.484Z,1009.74
2022-08-25T08:51:33.489Z,1009.69
2022-08-25T08:52:33.496Z,1009.74
2022-08-25T08:53:34.109Z,1009.69
2022-08-25T08:54:34.223Z,1009.72
2022-08-25T08:55:33.780Z,1009.64
2022-08-25T08:56:33.888Z,1009.70
2022-08-25T08:57:34.014Z,1009.69
2022-08-25T08:58:34.114Z,1009.60
2022-08-25T08:59:34.266Z,1009.57
2022-08-25T09:00:34.392Z,1009.56
2022-08-25T09:01:34.681Z,1009.56
2022-08-25T09:02:38.539Z,1009.55
2022-08-25T09:03:35.850Z,1009.49
2022-08-25T09:04:34.882Z,1009.48
2022-08-25T09:05:41.021Z,1009.52
2022-08-25T09:06:36.151Z,1009.45
2022-08-25T09:07:35.296Z,1009.45
2022-08-25T09:08:35.363Z,1009.47
2022-08-25T09:09:36.113Z,1009.42
2022-08-25T09:10:35.591Z,1009.46
2022-08-25T09:11:35.731Z,1009.41
2022-08-25T09:12:35.915Z,1009.42
2022-08-25T09:13:35.962Z,1009.44
2022-08-25T09:14:36.062Z,1009.45
2022-08-25T09:15:41.076Z,1009.49
2022-08-25T09:16:37.342Z,1009.45
2022-08-25T09:17:36.450Z,1009.44
2022-08-25T09:18:41.084Z,1009.43
2022-08-25T09:19:37.644Z,1009.35
2022-08-25T09:20:36.753Z,1009.43
2022-08-25T09:21:36.891Z,1009.45
2022-08-25T09:22:37.078Z,1009.42
2022-08-25T09:23:37.153Z,1009.38
2022-08-25T09:24:37.304Z,1009.44
2022-08-25T09:25:53.072Z,1009.37
2022-08-25T09:26:38.539Z,1009.41
2022-08-25T09:27:37.704Z,1009.42
2022-08-25T09:28:37.870Z,1009.36
2022-08-25T09:29:37.955Z,1009.43
2022-08-25T09:30:38.103Z,1009.38
2022-08-25T09:31:38.308Z,1009.42
2022-08-25T09:32:38.368Z,1009.39
2022-08-25T09:33:38.512Z,1009.48
2022-08-25T09:34:38.601Z,1009.42
2022-08-25T09:35:38.745Z,1009.38
2022-08-25T09:36:38.874Z,1009.34
2022-08-25T09:37:38.976Z,1009.36
2022-08-25T09:38:39.213Z,1009.34
2022-08-25T09:39:39.238Z,1009.36
2022-08-25T09:40:39.334Z,1009.29
2022-08-25T09:41:39.457Z,1009.32
2022-08-25T09:42:39.556Z,1009.18
2022-08-25T09:43:39.734Z,1009.16
2022-08-25T09:44:39.826Z,1009.19
2022-08-25T09:45:39.965Z,1009.22
2022-08-25T09:46:40.121Z,1009.26
2022-08-25T09:47:40.175Z,1009.22
2022-08-25T09:48:40.977Z,1009.21
2022-08-25T09:49:40.386Z,1009.19
2022-08-25T09:50:45.585Z,1009.15
2022-08-25T09:51:42.995Z,1009.12
2022-08-25T09:52:41.449Z,1009.10
2022-08-25T09:53:40.965Z,1009.11
2022-08-25T09:54:43.968Z,1009.02
2022-08-25T09:55:41.199Z,1009.07
2022-08-25T09:56:41.291Z,1009.10
2022-08-25T09:57:41.405Z,1009.04
2022-08-25T09:58:41.523Z,1008.98
2022-08-25T09:59:41.675Z,1008.96
2022-08-25T10:00:42.755Z,1008.96
2022-08-25T10:01:41.909Z,1009.01
2022-08-25T10:02:42.126Z,1008.94
2022-08-25T10:03:42.167Z,1008.99
2022-08-25T10:04:42.363Z,1008.95
2022-08-25T10:05:42.407Z,1008.95
2022-08-25T10:06:42.553Z,1008.92
2022-08-25T10:07:42.703Z,1008.85
2022-08-25T10:08:42.801Z,1008.82
2022-08-25T10:09:42.967Z,1008.86
2022-08-25T10:10:43.079Z,1008.88
2022-08-25T10:11:43.523Z,1008.80
2022-08-25T10:12:43.327Z,1008.75
2022-08-25T10:13:43.456Z,1008.79
2022-08-25T10:14:44.547Z,1008.78
2022-08-25T10:15:43.816Z,1008.78
2022-08-25T10:16:46.874Z,1008.88
2022-08-25T10:17:43.929Z,1008.80
2022-08-25T10:18:44.041Z,1008.80
2022-08-25T10:19:44.420Z,1008.68
2022-08-25T10:20:44.745Z,1008.74
2022-08-25T10:21:44.418Z,1008.66
2022-08-25T10:22:44.543Z,1008.74
2022-08-25T10:23:44.728Z,1008.64
2022-08-25T10:24:44.789Z,1008.66
2022-08-25T10:25:58.933Z,1008.68
2022-08-25T10:26:46.057Z,1008.66
2022-08-25T10:27:45.228Z,1008.57
2022-08-25T10:28:45.328Z,1008.65
2022-08-25T10:29:45.493Z,1008.54
2022-08-25T10:30:45.660Z,1008.58
2022-08-25T10:31:45.739Z,1008.64
2022-08-25T10:32:45.852Z,1008.58
2022-08-25T10:33:46.017Z,1008.54
2022-08-25T10:34:46.111Z,1008.51
2022-08-25T10:35:47.241Z,1008.56
2022-08-25T10:36:46.935Z,1008.48
2022-08-25T10:37:46.479Z,1008.59
2022-08-25T10:38:46.600Z,1008.61
2022-08-25T10:39:46.770Z,1008.65
2022-08-25T10:40:47.850Z,1008.58
2022-08-25T10:41:46.958Z,1008.59
2022-08-25T10:42:47.113Z,1008.57
2022-08-25T10:43:47.199Z,1008.54
2022-08-25T10:44:47.311Z,1008.47
2022-08-25T10:45:47.523Z,1008.49
2022-08-25T10:46:47.577Z,1008.46
2022-08-25T10:47:47.737Z,1008.47
2022-08-25T10:48:47.832Z,1008.39
2022-08-25T10:49:50.086Z,1008.44
2022-08-25T10:50:49.012Z,1008.40
2022-08-25T10:51:51.170Z,1008.47
2022-08-25T10:52:48.272Z,1008.44
2022-08-25T10:53:49.096Z,1008.42
2022-08-25T10:54:48.532Z,1008.41
2022-08-25T10:55:48.700Z,1008.41
2022-08-25T10:56:48.843Z,1008.42
2022-08-25T10:57:48.959Z,1008.38
2022-08-25T10:58:49.091Z,1008.33
2022-08-25T10:59:49.225Z,1008.28
2022-08-25T11:00:49.335Z,1008.30
2022-08-25T11:01:53.677Z,1008.30
2022-08-25T11:02:49.620Z,1008.28
2022-08-25T11:03:49.746Z,1008.32
2022-08-25T11:04:49.910Z,1008.35
2022-08-25T11:05:50.040Z,1008.25
2022-08-25T11:06:53.054Z,1008.19
2022-08-25T11:07:50.301Z,1008.25
2022-08-25T11:08:50.390Z,1008.20
2022-08-25T11:09:50.509Z,1008.22
2022-08-25T11:10:50.623Z,1008.23
2022-08-25T11:11:50.770Z,1008.22
2022-08-25T11:12:50.912Z,1008.22
2022-08-25T11:13:50.988Z,1008.15
2022-08-25T11:14:51.109Z,1008.20
2022-08-25T11:16:13.767Z,1008.18
2022-08-25T11:16:52.379Z,1008.15
2022-08-25T11:17:51.463Z,1008.12
2022-08-25T11:18:51.723Z,1008.23
2022-08-25T11:19:51.721Z,1008.12
2022-08-25T11:20:51.882Z,1008.12
2022-08-25T11:21:51.972Z,1008.18
2022-08-25T11:22:52.133Z,1008.13
2022-08-25T11:23:52.243Z,1008.16
2022-08-25T11:24:52.349Z,1008.15
2022-08-25T11:25:52.483Z,1008.07
2022-08-25T11:26:52.595Z,1008.04
2022-08-25T11:27:52.714Z,1008.01
2022-08-25T11:28:52.830Z,1008.02
2022-08-25T11:29:52.953Z,1008.06
2022-08-25T11:30:53.145Z,1008.06
2022-08-25T11:31:53.919Z,1008.04
2022-08-25T11:32:53.311Z,1008.02
2022-08-25T11:33:53.504Z,1008.00
2022-08-25T11:34:53.584Z,1008.02
2022-08-25T11:35:53.767Z,1007.97
2022-08-25T11:36:54.057Z,1008.06
2022-08-25T11:37:53.993Z,1008.05
2022-08-25T11:38:54.097Z,1008.02
2022-08-25T11:39:54.249Z,1008.06
2022-08-25T11:40:54.373Z,1008.05
2022-08-25T11:41:54.513Z,1008.03
2022-08-25T11:42:54.633Z,1008.02
2022-08-25T11:43:54.748Z,1008.02
2022-08-25T11:44:55.099Z,1008.01
2022-08-25T11:45:55.106Z,1007.95
2022-08-25T11:46:55.093Z,1007.99
2022-08-25T11:47:55.232Z,1008.02
2022-08-25T11:48:55.392Z,1007.96
2022-08-25T11:49:55.502Z,1007.97
2022-08-25T11:50:55.643Z,1007.93
2022-08-25T11:51:55.752Z,1007.96
2022-08-25T11:52:56.925Z,1007.93
2022-08-25T11:53:56.011Z,1007.86
2022-08-25T11:54:56.143Z,1007.92
2022-08-25T11:55:56.302Z,1007.87
2022-08-25T11:56:56.389Z,1007.87
2022-08-25T11:57:56.503Z,1007.85
2022-08-25T11:58:56.636Z,1007.90
2022-08-25T11:59:57.481Z,1007.85
2022-08-25T12:00:56.884Z,1007.88
2022-08-25T12:01:57.015Z,1007.81
2022-08-25T12:03:01.288Z,1007.80
2022-08-25T12:03:57.292Z,1007.80
2022-08-25T12:04:57.576Z,1007.83
2022-08-25T12:05:57.498Z,1007.72
2022-08-25T12:06:57.624Z,1007.72
2022-08-25T12:07:57.742Z,1007.73
2022-08-25T12:08:57.929Z,1007.66